Time;durP1;ratioP1;P1;durP2;ratioP2;P2;SDS_P1;SDS_P2;PMS_P1;PMS_P2;Temp;Humidity;BMP_temperature;BMP_pressure;BME280_temperature;BME280_humidity;BME280_pressure;Samples;Min_cycle;Max_cycle;Signal;HPM_P1;HPM_P2
2023/12/24 00:00:09;;;;;;;0.50;0.50;;;;;;;6.10;100.00;93876.69;5054553;28;20675;-85
2023/12/24 00:02:36;;;;;;;0.50;0.50;;;;;;;6.23;100.00;93871.16;5055230;28;20239;-85
2023/12/24 00:05:03;;;;;;;1.65;0.45;;;;;;;6.24;100.00;93874.63;5055437;28;20216;-84
2023/12/24 00:07:30;;;;;;;0.35;0.35;;;;;;;6.18;100.00;93881.28;5055600;28;20243;-83
2023/12/24 00:09:58;;;;;;;0.25;0.25;;;;;;;6.18;100.00;93871.31;5056018;28;20215;-84
2023/12/24 00:12:25;;;;;;;0.22;0.22;;;;;;;6.21;100.00;93876.06;5054527;28;20570;-84
2023/12/24 00:14:53;;;;;;;0.35;0.35;;;;;;;6.42;99.21;93868.88;5055601;28;20204;-84
2023/12/24 00:17:20;;;;;;;1.55;0.77;;;;;;;6.65;97.83;93882.94;5055127;28;20199;-84
2023/12/24 00:19:47;;;;;;;0.40;0.40;;;;;;;6.74;97.96;93882.91;5054286;28;20714;-85
2023/12/24 00:22:14;;;;;;;0.20;0.20;;;;;;;6.80;96.89;93878.94;5054680;28;20238;-84
2023/12/24 00:24:41;;;;;;;0.20;0.20;;;;;;;6.88;96.23;93883.50;5054810;28;20262;-84
2023/12/24 00:27:09;;;;;;;0.57;0.57;;;;;;;7.64;92.17;93894.22;5055500;28;20208;-82
2023/12/24 00:29:37;;;;;;;0.22;0.22;;;;;;;7.42;93.03;93891.78;5055262;28;20633;-84
2023/12/24 00:32:05;;;;;;;0.20;0.20;;;;;;;7.54;92.75;93896.47;5054756;28;20603;-83
2023/12/24 00:34:31;;;;;;;0.20;0.20;;;;;;;8.32;88.54;93889.44;5055943;28;20211;-85
2023/12/24 00:36:58;;;;;;;0.20;0.20;;;;;;;8.75;86.03;93899.81;5056191;28;20608;-83
2023/12/24 00:39:25;;;;;;;0.20;0.20;;;;;;;9.47;81.31;93902.94;5056870;28;20212;-84
2023/12/24 00:41:52;;;;;;;0.20;0.20;;;;;;;9.70;79.48;93909.50;5038144;28;20207;-81
2023/12/24 00:44:20;;;;;;;0.20;0.20;;;;;;;9.88;77.35;93902.69;5057161;28;20583;-85
2023/12/24 00:46:47;;;;;;;0.30;0.30;;;;;;;10.02;75.46;93891.50;5057038;28;20556;-80
2023/12/24 00:49:14;;;;;;;1.08;0.30;;;;;;;10.08;74.99;93905.59;5055644;28;20214;-84
2023/12/24 00:51:42;;;;;;;0.22;0.22;;;;;;;10.04;74.10;93920.94;5057294;28;20609;-84
2023/12/24 00:54:09;;;;;;;0.20;0.20;;;;;;;10.06;74.58;93932.22;5055782;28;20283;-84
2023/12/24 00:56:36;;;;;;;0.20;0.20;;;;;;;9.96;74.49;93920.72;5057344;28;20634;-85
2023/12/24 00:59:03;;;;;;;0.20;0.20;;;;;;;10.03;73.69;93952.59;5056661;28;20531;-83
2023/12/24 01:01:31;;;;;;;0.20;0.20;;;;;;;10.09;73.20;93962.09;5056736;28;20204;-83
2023/12/24 01:03:58;;;;;;;0.40;0.40;;;;;;;10.05;71.93;93944.16;5057790;28;20238;-80
2023/12/24 01:06:25;;;;;;;0.20;0.20;;;;;;;10.11;71.43;93977.97;5057595;28;20571;-85
2023/12/24 01:08:51;;;;;;;0.73;0.73;;;;;;;10.09;71.92;93966.72;5059505;28;20559;-85
2023/12/24 01:11:18;;;;;;;0.35;0.35;;;;;;;10.04;70.46;93980.47;5058631;28;20204;-85
2023/12/24 01:13:45;;;;;;;0.20;0.20;;;;;;;10.05;70.16;93965.81;5058627;28;20227;-83
2023/12/24 01:16:12;;;;;;;0.20;0.20;;;;;;;10.07;69.87;93985.19;5057829;28;20219;-83
2023/12/24 01:18:41;;;;;;;0.30;0.30;;;;;;;10.02;70.90;93980.00;5057679;28;20218;-85
2023/12/24 01:21:09;;;;;;;0.20;0.20;;;;;;;9.91;71.43;93999.41;5058018;28;20220;-84
2023/12/24 01:23:36;;;;;;;0.20;0.20;;;;;;;9.89;71.24;93990.84;5056140;28;20227;-86
2023/12/24 01:26:03;;;;;;;0.30;0.30;;;;;;;9.85;69.68;93989.91;5056105;28;20227;-82
2023/12/24 01:28:30;;;;;;;0.50;0.50;;;;;;;9.87;69.41;93993.09;5056657;28;20648;-86
2023/12/24 01:30:58;;;;;;;0.30;0.30;;;;;;;9.78;69.19;93995.13;5056008;28;20305;-86
2023/12/24 01:33:24;;;;;;;0.35;0.35;;;;;;;9.78;69.55;93995.13;5056151;28;20310;-84
2023/12/24 01:35:53;;;;;;;0.22;0.22;;;;;;;9.73;69.97;94003.44;5055434;28;20651;-86
2023/12/24 01:38:19;;;;;;;0.28;0.28;;;;;;;9.67;69.07;94015.63;5056787;28;20657;-82
2023/12/24 01:40:47;;;;;;;0.30;0.30;;;;;;;9.67;69.05;94015.63;5055540;28;20207;-82
2023/12/24 01:43:13;;;;;;;0.30;0.30;;;;;;;9.69;69.34;94002.56;5055867;28;20299;-82
2023/12/24 01:45:43;;;;;;;0.20;0.20;;;;;;;9.58;68.92;94012.22;5054611;28;20222;-81
2023/12/24 01:48:14;;;;;;;0.63;0.60;;;;;;;9.48;69.53;94015.38;5053744;28;20241;-82
2023/12/24 01:50:43;;;;;;;0.20;0.20;;;;;;;9.47;69.53;94011.88;5053447;28;20200;-84
2023/12/24 01:53:12;;;;;;;0.22;0.22;;;;;;;9.38;69.95;94007.69;5053456;28;20263;-84
2023/12/24 01:55:39;;;;;;;0.20;0.20;;;;;;;9.36;70.17;94005.31;5054147;28;20222;-83
2023/12/24 01:58:07;;;;;;;0.28;0.28;;;;;;;9.36;70.34;94026.94;5053745;28;20204;-81
2023/12/24 02:00:34;;;;;;;0.20;0.20;;;;;;;9.37;70.00;94027.72;5053930;28;20219;-83
2023/12/24 02:03:03;;;;;;;0.38;0.38;;;;;;;9.37;70.64;94033.13;5052801;28;20223;-82
2023/12/24 02:05:30;;;;;;;0.20;0.20;;;;;;;9.30;71.23;94033.66;5053182;28;20207;-82
2023/12/24 02:07:57;;;;;;;0.20;0.20;;;;;;;9.36;70.82;94040.47;5053348;28;20552;-82
2023/12/24 02:10:26;;;;;;;0.20;0.20;;;;;;;9.32;70.93;94033.34;5054849;28;20203;-84
2023/12/24 02:12:52;;;;;;;1.77;0.85;;;;;;;9.28;70.15;94035.94;5053414;28;20208;-81
2023/12/24 02:15:19;;;;;;;0.20;0.20;;;;;;;9.30;70.50;94054.50;5053810;28;20248;-82
2023/12/24 02:17:46;;;;;;;0.25;0.25;;;;;;;9.23;69.83;94055.06;5052930;28;20216;-78
2023/12/24 02:20:16;;;;;;;0.20;0.20;;;;;;;9.27;69.99;94053.28;5054287;28;20219;-83
2023/12/24 02:22:44;;;;;;;0.40;0.40;;;;;;;9.24;69.02;94041.22;5054209;28;20211;-83
2023/12/24 02:25:11;;;;;;;0.20;0.20;;;;;;;9.18;69.57;94047.94;5053636;28;20231;-82
2023/12/24 02:27:48;;;;;;;0.20;0.20;;;;;;;9.16;70.75;94058.28;5053144;28;20207;-83
2023/12/24 02:30:21;;;;;;;0.57;0.57;;;;;;;9.02;70.16;94052.38;5052857;28;20227;-82
2023/12/24 02:32:54;;;;;;;0.20;0.20;;;;;;;9.00;71.16;94061.94;5053077;28;20223;-84
2023/12/24 02:35:22;;;;;;;0.20;0.20;;;;;;;8.97;70.47;94039.09;5054118;28;20208;-82
2023/12/24 02:37:50;;;;;;;0.30;0.30;;;;;;;9.03;70.62;94062.06;5052777;28;20216;-83
2023/12/24 02:40:17;;;;;;;0.20;0.20;;;;;;;9.00;71.08;94048.44;5052058;28;20210;-81
2023/12/24 02:42:44;;;;;;;0.20;0.20;;;;;;;9.01;70.25;94064.31;5052734;28;20204;-83
2023/12/24 02:45:12;;;;;;;0.20;0.20;;;;;;;9.03;69.72;94067.47;5051784;28;20234;-85
2023/12/24 02:47:39;;;;;;;0.30;0.30;;;;;;;9.05;69.39;94067.94;5053425;28;20583;-85
2023/12/24 02:50:07;;;;;;;0.20;0.20;;;;;;;9.05;68.93;94076.03;5052102;28;20269;-83
2023/12/24 02:52:33;;;;;;;0.30;0.30;;;;;;;9.03;68.65;94074.78;5052402;28;20560;-84
2023/12/24 02:55:02;;;;;;;0.65;0.60;;;;;;;9.01;69.44;94074.34;5051722;28;20219;-82
2023/12/24 02:57:29;;;;;;;0.20;0.20;;;;;;;8.91;69.48;94083.63;5052298;28;20228;-80
2023/12/24 02:59:56;;;;;;;0.20;0.20;;;;;;;9.02;69.03;94082.09;5052301;28;20298;-84
2023/12/24 03:02:22;;;;;;;0.20;0.20;;;;;;;9.07;68.18;94078.41;5052596;28;20687;-81
2023/12/24 03:04:49;;;;;;;0.20;0.20;;;;;;;9.05;68.04;94070.63;5053257;28;20239;-80
2023/12/24 03:07:16;;;;;;;0.20;0.20;;;;;;;9.06;67.99;94084.94;5052515;28;20211;-82
2023/12/24 03:09:43;;;;;;;0.20;0.20;;;;;;;8.85;68.91;94088.44;5051927;28;20215;-82
2023/12/24 03:12:12;;;;;;;0.20;0.20;;;;;;;8.90;68.30;94090.13;5051696;28;20637;-80
2023/12/24 03:14:38;;;;;;;0.20;0.20;;;;;;;8.82;69.42;94099.91;5051603;28;20200;-84
2023/12/24 03:17:05;;;;;;;0.20;0.20;;;;;;;8.77;69.34;94107.38;5052096;28;20277;-81
2023/12/24 03:19:34;;;;;;;0.63;0.30;;;;;;;8.74;69.55;94102.66;5051670;28;20314;-84
2023/12/24 03:22:01;;;;;;;0.20;0.20;;;;;;;8.71;69.43;94109.50;5051565;28;20223;-83
2023/12/24 03:24:28;;;;;;;1.15;0.70;;;;;;;8.76;69.92;94116.59;5051355;28;20598;-82
2023/12/24 03:26:54;;;;;;;0.30;0.30;;;;;;;8.88;69.08;94108.59;5051396;28;20195;-82
2023/12/24 03:29:23;;;;;;;0.20;0.20;;;;;;;8.82;69.01;94116.09;5051045;28;20623;-83
2023/12/24 03:31:50;;;;;;;0.20;0.20;;;;;;;8.77;69.31;94113.59;5051440;28;20246;-83
2023/12/24 03:34:17;;;;;;;0.20;0.20;;;;;;;8.95;68.81;94119.66;5051609;28;20219;-83
2023/12/24 03:36:44;;;;;;;0.20;0.20;;;;;;;8.88;69.27;94124.81;5051327;28;20204;-81
2023/12/24 03:39:11;;;;;;;0.20;0.20;;;;;;;8.88;68.96;94135.63;5051286;28;20546;-84
2023/12/24 03:41:38;;;;;;;0.20;0.20;;;;;;;8.86;69.26;94132.44;5051561;28;20608;-84
2023/12/24 03:44:05;;;;;;;0.30;0.30;;;;;;;8.86;68.87;94143.25;5051307;28;20263;-84
2023/12/24 03:46:33;;;;;;;0.20;0.20;;;;;;;8.79;69.20;94146.47;5051784;28;20219;-82
2023/12/24 03:49:00;;;;;;;0.30;0.30;;;;;;;8.74;69.55;94145.88;5051593;28;20207;-83
2023/12/24 03:51:27;;;;;;;0.47;0.47;;;;;;;8.66;70.28;94149.41;5051378;28;20207;-83
2023/12/24 03:53:54;;;;;;;0.20;0.20;;;;;;;8.67;70.57;94153.69;5051289;28;20214;-83
2023/12/24 03:56:21;;;;;;;6.65;0.60;;;;;;;8.72;69.95;94153.50;5051861;28;20298;-84
2023/12/24 03:58:50;;;;;;;0.20;0.20;;;;;;;8.93;70.00;94159.72;5052258;28;20223;-83
2023/12/24 04:01:17;;;;;;;0.30;0.30;;;;;;;8.99;69.01;94169.22;5052231;28;20231;-80
2023/12/24 04:03:50;;;;;;;0.20;0.20;;;;;;;9.11;68.64;94160.38;5039213;28;20231;-83
2023/12/24 04:06:17;;;;;;;0.30;0.30;;;;;;;9.09;68.74;94173.44;5053014;28;20641;-83
2023/12/24 04:08:45;;;;;;;0.20;0.20;;;;;;;9.03;69.19;94174.72;5052094;28;20393;-83
2023/12/24 04:11:13;;;;;;;0.20;0.20;;;;;;;8.97;70.17;94187.66;5051115;28;20575;-83
2023/12/24 04:13:40;;;;;;;0.30;0.30;;;;;;;8.87;69.66;94182.66;5051882;28;20528;-81
2023/12/24 04:16:07;;;;;;;0.30;0.30;;;;;;;8.90;70.01;94198.97;5054018;28;20276;-84
2023/12/24 04:18:34;;;;;;;0.30;0.30;;;;;;;8.87;70.11;94198.84;5052349;28;20222;-82
2023/12/24 04:21:02;;;;;;;1.40;1.38;;;;;;;8.83;70.67;94203.31;5052396;28;20535;-83
2023/12/24 04:23:29;;;;;;;0.20;0.20;;;;;;;8.77;70.67;94204.59;5052328;28;20242;-83
2023/12/24 04:25:56;;;;;;;0.20;0.20;;;;;;;8.81;70.77;94210.94;5052541;28;20208;-82
2023/12/24 04:28:23;;;;;;;0.20;0.20;;;;;;;8.77;71.16;94194.59;5052846;28;20234;-83
2023/12/24 04:30:50;;;;;;;0.20;0.20;;;;;;;8.72;71.44;94200.19;5052721;28;20262;-84
2023/12/24 04:33:17;;;;;;;0.20;0.20;;;;;;;8.75;71.42;94201.44;5051817;28;20619;-83
2023/12/24 04:35:45;;;;;;;0.20;0.20;;;;;;;8.79;71.29;94211.25;5051211;28;20265;-84
2023/12/24 04:38:13;;;;;;;0.13;0.13;;;;;;;8.79;71.44;94194.28;5052623;28;20211;-86
2023/12/24 04:40:40;;;;;;;0.10;0.10;;;;;;;8.77;71.76;94196.50;5051203;28;20665;-83
2023/12/24 04:43:07;;;;;;;0.60;0.60;;;;;;;8.74;71.98;94210.69;5055139;28;20612;-83
2023/12/24 04:45:33;;;;;;;0.25;0.25;;;;;;;8.75;72.28;94202.22;5055799;28;20242;-83
2023/12/24 04:48:03;;;;;;;0.30;0.30;;;;;;;8.83;71.92;94214.91;5055537;28;20211;-85
2023/12/24 04:50:30;;;;;;;0.20;0.20;;;;;;;8.82;71.93;94207.13;5055553;28;20222;-84
2023/12/24 04:52:56;;;;;;;0.10;0.10;;;;;;;8.93;71.95;94211.03;5056455;28;20651;-85
2023/12/24 04:55:25;;;;;;;0.20;0.20;;;;;;;8.98;71.15;94199.25;5054973;28;20234;-82
2023/12/24 04:57:52;;;;;;;0.30;0.30;;;;;;;9.01;70.91;94215.59;5056311;28;20207;-86
2023/12/24 05:00:19;;;;;;;0.35;0.35;;;;;;;9.01;70.49;94221.00;5056095;28;20595;-83
2023/12/24 05:02:46;;;;;;;0.20;0.20;;;;;;;9.01;70.11;94221.00;5055330;28;20218;-80
2023/12/24 05:05:15;;;;;;;0.30;0.30;;;;;;;9.05;70.17;94221.91;5056138;28;20563;-85
2023/12/24 05:07:42;;;;;;;0.20;0.20;;;;;;;9.02;70.12;94227.19;5055061;28;20215;-84
2023/12/24 05:10:10;;;;;;;0.20;0.20;;;;;;;9.02;70.23;94238.78;5054455;28;20210;-81
2023/12/24 05:12:38;;;;;;;1.70;0.60;;;;;;;9.03;70.02;94237.66;5054256;28;20212;-84
2023/12/24 05:15:05;;;;;;;0.38;0.25;;;;;;;8.91;71.01;94232.16;5054481;28;20208;-86
2023/12/24 05:17:32;;;;;;;0.20;0.20;;;;;;;9.01;71.00;94245.31;5054251;28;20226;-84
2023/12/24 05:19:59;;;;;;;0.30;0.30;;;;;;;9.04;70.06;94247.34;5055257;28;20207;-84
2023/12/24 05:22:26;;;;;;;0.50;0.50;;;;;;;9.03;70.14;94267.38;5056159;28;20385;-84
2023/12/24 05:24:53;;;;;;;0.20;0.20;;;;;;;9.10;70.31;94261.47;5055279;28;20228;-83
2023/12/24 05:27:20;;;;;;;0.20;0.20;;;;;;;9.05;70.38;94256.25;5055226;28;20219;-84
2023/12/24 05:29:48;;;;;;;0.30;0.30;;;;;;;9.10;70.15;94273.06;5053903;28;20223;-83
2023/12/24 05:32:15;;;;;;;0.20;0.20;;;;;;;9.03;70.73;94267.38;5054926;28;20236;-84
2023/12/24 05:34:42;;;;;;;0.57;0.40;;;;;;;9.01;70.18;94248.03;5055038;28;20219;-84
2023/12/24 05:37:09;;;;;;;3.85;0.47;;;;;;;8.98;70.55;94240.56;5054360;28;20214;-85
2023/12/24 05:39:36;;;;;;;0.22;0.22;;;;;;;9.00;70.93;94238.34;5054102;28;20726;-83
2023/12/24 05:42:03;;;;;;;0.30;0.30;;;;;;;8.97;71.03;94243.59;5054016;28;20207;-82
2023/12/24 05:44:30;;;;;;;0.20;0.20;;;;;;;8.96;70.53;94250.09;5055415;28;20564;-80
2023/12/24 05:46:58;;;;;;;0.30;0.30;;;;;;;8.92;70.86;94249.97;5054853;28;20207;-83
2023/12/24 05:49:25;;;;;;;0.77;0.55;;;;;;;8.94;70.64;94253.13;5055278;28;20239;-84
2023/12/24 05:51:52;;;;;;;0.20;0.20;;;;;;;8.91;71.16;94251.06;5055489;28;20227;-85
2023/12/24 05:54:18;;;;;;;0.30;0.30;;;;;;;8.87;71.14;94258.25;5053575;28;20226;-84
2023/12/24 05:56:45;;;;;;;0.30;0.30;;;;;;;8.78;71.54;94244.78;5055123;28;20204;-83
2023/12/24 05:59:12;;;;;;;0.20;0.20;;;;;;;8.77;71.36;94242.41;5053972;28;20577;-84
2023/12/24 06:01:39;;;;;;;0.30;0.30;;;;;;;8.73;72.29;94241.50;5053711;28;20278;-84
2023/12/24 06:04:08;;;;;;;0.20;0.20;;;;;;;8.80;71.52;94237.16;5052994;28;20287;-83
2023/12/24 06:06:40;;;;;;;0.20;0.20;;;;;;;8.73;71.57;94247.69;5054056;28;20200;-83
2023/12/24 06:09:07;;;;;;;0.50;0.50;;;;;;;8.73;72.13;94246.91;5053143;28;20299;-83
2023/12/24 06:11:34;;;;;;;0.20;0.20;;;;;;;8.70;71.70;94264.53;5053527;28;20200;-84
2023/12/24 06:14:01;;;;;;;0.20;0.20;;;;;;;8.89;71.61;94261.41;5052768;28;20211;-84
2023/12/24 06:16:29;;;;;;;0.22;0.22;;;;;;;9.04;69.34;94265.47;5054154;28;20215;-78
2023/12/24 06:18:57;;;;;;;0.20;0.20;;;;;;;9.04;70.28;94252.75;5053423;28;20207;-82
2023/12/24 06:21:25;;;;;;;0.20;0.20;;;;;;;8.95;70.05;94259.31;5052616;28;20219;-78
2023/12/24 06:23:52;;;;;;;0.35;0.35;;;;;;;9.05;70.63;94270.53;5052948;28;20226;-83
2023/12/24 06:26:19;;;;;;;0.43;0.43;;;;;;;9.17;69.60;94273.34;5052823;28;20228;-85
2023/12/24 06:28:46;;;;;;;0.52;0.52;;;;;;;9.06;69.61;94274.84;5052816;28;20226;-84
2023/12/24 06:31:20;;;;;;;0.20;0.20;;;;;;;9.21;69.27;94287.00;5052848;28;20243;-85
2023/12/24 06:33:47;;;;;;;0.20;0.20;;;;;;;9.27;68.87;94283.00;5053256;28;20207;-84
2023/12/24 06:36:14;;;;;;;0.30;0.30;;;;;;;9.36;68.45;94274.81;5053575;28;20594;-85
2023/12/24 06:38:43;;;;;;;1.08;0.50;;;;;;;9.34;68.86;94282.47;5052898;28;20203;-83
2023/12/24 06:41:10;;;;;;;0.30;0.30;;;;;;;9.41;68.11;94275.44;5053149;28;20682;-85
2023/12/24 06:43:37;;;;;;;0.20;0.20;;;;;;;9.42;67.62;94278.94;5053363;28;20215;-84
2023/12/24 06:46:06;;;;;;;0.30;0.30;;;;;;;9.44;67.99;94282.84;5053093;28;20234;-80
2023/12/24 06:48:33;;;;;;;0.20;0.20;;;;;;;9.50;67.60;94295.06;5053090;28;20218;-85
2023/12/24 06:51:00;;;;;;;0.20;0.20;;;;;;;9.48;67.45;94291.13;5053409;28;20215;-84
2023/12/24 06:53:29;;;;;;;0.20;0.20;;;;;;;9.49;68.06;94311.63;5053568;28;20235;-83
2023/12/24 06:55:57;;;;;;;0.20;0.20;;;;;;;9.69;67.30;94323.59;5053315;28;20208;-85
2023/12/24 06:58:24;;;;;;;0.20;0.20;;;;;;;9.66;66.73;94332.34;5053219;28;20215;-84
2023/12/24 07:00:51;;;;;;;0.20;0.20;;;;;;;9.72;67.07;94331.81;5053708;28;20203;-84
2023/12/24 07:03:18;;;;;;;0.20;0.20;;;;;;;9.66;67.41;94338.56;5052134;28;20207;-84
2023/12/24 07:05:45;;;;;;;0.20;0.20;;;;;;;9.71;66.84;94330.22;5051607;28;20239;-86
2023/12/24 07:08:12;;;;;;;0.20;0.20;;;;;;;9.86;66.49;94348.59;5052661;28;20215;-85
2023/12/24 07:10:39;;;;;;;0.22;0.22;;;;;;;9.73;66.96;94344.22;5051943;28;20230;-83
2023/12/24 07:13:07;;;;;;;0.20;0.20;;;;;;;9.79;67.07;94342.13;5051334;28;20567;-84
2023/12/24 07:15:39;;;;;;;0.20;0.20;;;;;;;9.85;66.16;94333.47;5052659;28;20236;-85
2023/12/24 07:18:07;;;;;;;0.20;0.20;;;;;;;9.96;66.10;94347.41;5051815;28;20295;-84
2023/12/24 07:20:33;;;;;;;0.20;0.20;;;;;;;10.04;65.67;94351.16;5053012;28;20212;-83
2023/12/24 07:22:59;;;;;;;0.20;0.20;;;;;;;10.13;64.76;94351.88;5052208;28;20207;-87
2023/12/24 07:25:26;;;;;;;0.20;0.20;;;;;;;10.16;64.64;94345.81;5052731;28;20234;-81
2023/12/24 07:27:53;;;;;;;0.32;0.32;;;;;;;10.25;63.93;94338.47;5052515;28;20200;-85
2023/12/24 07:30:21;;;;;;;0.20;0.20;;;;;;;10.30;63.13;94346.34;5052329;28;20232;-83
2023/12/24 07:32:48;;;;;;;0.63;0.30;;;;;;;10.34;63.81;94350.00;5052268;28;20580;-84
2023/12/24 07:35:14;;;;;;;0.25;0.25;;;;;;;10.26;64.32;94357.03;5051942;28;20215;-80
2023/12/24 07:37:42;;;;;;;0.30;0.30;;;;;;;10.29;63.97;94356.38;5051616;28;20219;-85
2023/12/24 07:40:13;;;;;;;0.50;0.50;;;;;;;10.36;63.57;94360.50;5052147;28;20208;-81
2023/12/24 07:42:40;;;;;;;0.20;0.20;;;;;;;10.32;63.31;94382.81;5052720;28;20627;-81
2023/12/24 07:45:07;;;;;;;0.20;0.20;;;;;;;10.40;62.58;94370.31;5053530;28;20235;-85
2023/12/24 07:47:36;;;;;;;0.20;0.20;;;;;;;10.59;62.62;94359.78;5051958;28;20223;-85
2023/12/24 07:50:03;;;;;;;0.20;0.20;;;;;;;10.67;63.14;94349.97;5052021;28;20211;-85
2023/12/24 07:52:29;;;;;;;0.40;0.40;;;;;;;10.77;62.39;94354.19;5052602;28;20603;-82
2023/12/24 07:54:56;;;;;;;0.40;0.40;;;;;;;10.90;61.96;94347.66;5052911;28;20599;-84
2023/12/24 07:57:23;;;;;;;0.15;0.15;;;;;;;11.00;61.72;94339.09;5051812;28;20199;-87
2023/12/24 07:59:50;;;;;;;0.30;0.30;;;;;;;11.01;61.00;94337.97;5052390;28;20720;-84
2023/12/24 08:02:17;;;;;;;0.20;0.20;;;;;;;11.14;60.90;94352.31;5053282;28;20335;-84
2023/12/24 08:04:46;;;;;;;0.20;0.20;;;;;;;11.51;60.37;94361.25;5051543;28;20215;-84
2023/12/24 08:07:12;;;;;;;0.20;0.20;;;;;;;11.46;60.17;94361.50;5052592;28;20211;-83
2023/12/24 08:09:42;;;;;;;0.22;0.22;;;;;;;11.43;60.00;94370.31;5053352;28;20211;-84
2023/12/24 08:12:10;;;;;;;0.20;0.20;;;;;;;11.32;59.29;94359.91;5053307;28;20668;-87
2023/12/24 08:14:38;;;;;;;0.20;0.20;;;;;;;11.38;59.08;94353.13;5035902;28;20635;-85
2023/12/24 08:17:05;;;;;;;0.20;0.20;;;;;;;11.55;59.62;94343.19;5055114;28;20606;-87
2023/12/24 08:19:32;;;;;;;0.30;0.30;;;;;;;11.57;58.53;94324.66;5057115;28;20571;-85
2023/12/24 08:22:00;;;;;;;0.30;0.30;;;;;;;11.74;57.96;94327.91;5057254;28;20307;-85
2023/12/24 08:24:28;;;;;;;0.20;0.20;;;;;;;11.57;58.14;94327.34;5056158;28;20215;-83
2023/12/24 08:26:54;;;;;;;0.20;0.20;;;;;;;11.59;58.51;94328.59;5057409;28;20231;-85
2023/12/24 08:29:21;;;;;;;0.20;0.20;;;;;;;11.67;57.19;94318.75;5055896;28;20215;-85
2023/12/24 08:31:48;;;;;;;0.20;0.20;;;;;;;11.82;57.01;94301.78;5055281;28;20236;-86
2023/12/24 08:34:15;;;;;;;0.20;0.20;;;;;;;11.68;56.98;94302.13;5054723;28;20608;-85
2023/12/24 08:36:41;;;;;;;1.13;0.75;;;;;;;11.73;56.47;94315.47;5055793;28;20200;-85
2023/12/24 08:39:10;;;;;;;0.55;0.38;;;;;;;11.79;57.69;94318.75;5055012;28;20664;-84
2023/12/24 08:41:40;;;;;;;0.20;0.20;;;;;;;11.79;57.39;94317.97;5055253;28;20291;-84
2023/12/24 08:44:07;;;;;;;0.90;0.43;;;;;;;11.72;56.83;94323.94;5054555;28;20223;-81
2023/12/24 08:46:34;;;;;;;0.32;0.32;;;;;;;11.56;57.59;94336.63;5055291;28;20718;-84
2023/12/24 08:49:01;;;;;;;0.52;0.30;;;;;;;11.63;57.61;94342.25;5055180;28;20230;-83
2023/12/24 08:51:27;;;;;;;0.82;0.82;;;;;;;11.38;61.39;94336.06;5055188;28;20214;-85
2023/12/24 08:53:54;;;;;;;0.40;0.40;;;;;;;10.69;64.17;94321.41;5054232;28;20211;-85
2023/12/24 08:56:23;;;;;;;0.32;0.30;;;;;;;10.69;65.45;94348.50;5054707;28;20207;-82
2023/12/24 08:58:49;;;;;;;1.27;1.17;;;;;;;10.45;66.90;94347.66;5055117;28;20690;-84
2023/12/24 09:01:17;;;;;;;0.47;0.47;;;;;;;10.62;67.04;94342.06;5054497;28;20200;-83
2023/12/24 09:03:44;;;;;;;0.73;0.73;;;;;;;10.66;66.00;94338.34;5054576;28;20246;-86
2023/12/24 09:06:10;;;;;;;0.20;0.20;;;;;;;10.71;67.09;94334.63;5054948;28;20246;-84
2023/12/24 09:08:37;;;;;;;0.30;0.30;;;;;;;10.99;65.52;94318.53;5041123;28;20655;-85
2023/12/24 09:11:04;;;;;;;2.55;0.75;;;;;;;10.93;65.32;94330.75;5054532;28;20206;-84
2023/12/24 09:13:38;;;;;;;0.40;0.40;;;;;;;11.08;66.05;94324.63;5054524;28;20239;-83
2023/12/24 09:16:06;;;;;;;0.30;0.30;;;;;;;11.06;66.22;94323.41;5054728;28;20625;-84
2023/12/24 09:18:32;;;;;;;0.40;0.40;;;;;;;10.75;66.26;94318.50;5054968;28;20211;-85
2023/12/24 09:21:01;;;;;;;1.42;1.05;;;;;;;11.12;66.58;94333.69;5054774;28;20203;-84
2023/12/24 09:23:28;;;;;;;0.20;0.20;;;;;;;11.23;64.28;94329.38;5054651;28;20298;-82
2023/12/24 09:25:54;;;;;;;0.30;0.30;;;;;;;11.45;64.31;94327.38;5054325;28;20594;-82
2023/12/24 09:28:23;;;;;;;0.22;0.22;;;;;;;11.93;58.62;94330.03;5054496;28;20208;-85
2023/12/24 09:30:51;;;;;;;0.20;0.20;;;;;;;12.19;56.20;94323.38;5054301;28;20246;-85
2023/12/24 09:33:18;;;;;;;0.47;0.47;;;;;;;12.41;55.56;94322.88;5054399;28;20575;-85
2023/12/24 09:35:45;;;;;;;0.20;0.20;;;;;;;12.61;54.79;94316.41;5054960;28;21419;-85
2023/12/24 09:38:13;;;;;;;0.20;0.20;;;;;;;12.53;54.71;94317.38;5053752;28;20209;-83
2023/12/24 09:40:40;;;;;;;0.20;0.20;;;;;;;12.53;54.16;94320.09;5054711;28;20269;-83
2023/12/24 09:43:07;;;;;;;0.20;0.20;;;;;;;12.72;54.66;94305.81;5053865;28;20283;-85
2023/12/24 09:45:34;;;;;;;0.20;0.20;;;;;;;12.61;54.92;94304.75;5054405;28;20719;-86
2023/12/24 09:48:03;;;;;;;3.42;0.60;;;;;;;12.60;53.75;94293.09;5054162;28;20261;-83
2023/12/24 09:50:31;;;;;;;0.20;0.20;;;;;;;12.74;53.97;94298.91;5054459;28;20212;-84
2023/12/24 09:53:00;;;;;;;0.20;0.20;;;;;;;12.74;53.88;94298.91;5053949;28;20247;-81
2023/12/24 09:55:26;;;;;;;0.45;0.45;;;;;;;12.65;53.83;94306.44;5053972;28;20207;-85
2023/12/24 09:57:55;;;;;;;0.20;0.20;;;;;;;12.44;54.30;94289.56;5053755;28;20207;-80
2023/12/24 10:00:24;;;;;;;0.80;0.50;;;;;;;12.21;54.87;94274.97;5053997;28;20211;-76
2023/12/24 10:02:56;;;;;;;0.80;0.57;;;;;;;12.10;55.50;94280.09;5053949;28;20238;-86
2023/12/24 10:05:24;;;;;;;6.28;0.57;;;;;;;12.08;55.46;94272.31;5053563;28;20202;-79
2023/12/24 10:07:51;;;;;;;0.20;0.20;;;;;;;12.07;55.77;94259.06;5054816;28;20230;-83
2023/12/24 10:10:30;;;;;;;0.20;0.20;;;;;;;12.04;55.31;94230.69;5053700;28;20215;-85
2023/12/24 10:13:05;;;;;;;0.20;0.20;;;;;;;12.46;54.82;94243.81;5054285;28;20300;-86
2023/12/24 10:15:42;;;;;;;;;;;;;;;;;;;;;
2023/12/24 10:18:30;;;;;;;0.77;0.57;;;;;;;12.85;53.87;94233.19;5034561;28;20215;-85
2023/12/24 10:21:04;;;;;;;0.20;0.20;;;;;;;13.08;53.37;94234.13;5054892;28;20198;-84
2023/12/24 10:23:31;;;;;;;0.45;0.30;;;;;;;13.20;52.80;94228.59;5054144;28;20558;-84
2023/12/24 10:26:08;;;;;;;0.20;0.20;;;;;;;13.31;52.57;94207.88;5054875;28;20607;-79
2023/12/24 10:28:48;;;;;;;0.20;0.20;;;;;;;13.30;52.79;94214.44;5053319;28;20761;-82
2023/12/24 10:31:15;;;;;;;0.20;0.20;;;;;;;13.59;52.83;94190.56;5053391;28;20267;-84
2023/12/24 10:33:42;;;;;;;0.30;0.30;;;;;;;13.79;51.60;94178.56;5054042;28;20207;-84
2023/12/24 10:36:12;;;;;;;0.50;0.50;;;;;;;14.15;50.61;94175.38;5054253;28;20214;-84
2023/12/24 10:38:39;;;;;;;0.35;0.35;;;;;;;14.56;48.32;94165.63;5055022;28;20203;-84
2023/12/24 10:41:07;;;;;;;0.40;0.40;;;;;;;14.42;49.73;94172.75;5052383;28;20207;-84
2023/12/24 10:43:34;;;;;;;0.68;0.50;;;;;;;14.29;50.53;94168.59;5053148;28;20294;-83
2023/12/24 10:46:01;;;;;;;0.52;0.47;;;;;;;14.39;50.08;94179.69;5054175;28;20275;-81
2023/12/24 10:48:28;;;;;;;0.40;0.30;;;;;;;14.32;50.31;94179.56;5054019;28;20211;-85
2023/12/24 10:50:55;;;;;;;0.50;0.40;;;;;;;14.59;49.18;94169.56;5036320;28;20211;-82
2023/12/24 10:53:25;;;;;;;0.40;0.40;;;;;;;14.56;48.70;94171.06;5051474;28;20582;-78
2023/12/24 10:56:03;;;;;;;0.45;0.45;;;;;;;14.69;48.42;94166.22;5052600;28;20607;-85
2023/12/24 10:58:38;;;;;;;0.55;0.55;;;;;;;15.04;48.93;94152.34;5053684;28;20568;-85
2023/12/24 11:01:07;;;;;;;0.30;0.30;;;;;;;15.14;48.50;94176.28;5054698;28;20575;-83
2023/12/24 11:03:47;;;;;;;5.93;0.47;;;;;;;14.94;48.59;94175.59;5055027;28;20560;-80
2023/12/24 11:06:46;;;;;;;0.65;0.40;;;;;;;15.07;49.53;94175.38;5053998;28;20228;-85
2023/12/24 11:09:46;;;;;;;0.50;0.40;;;;;;;15.17;48.39;94177.50;5035989;28;20245;-85
2023/12/24 11:12:31;;;;;;;0.80;0.70;;;;;;;15.27;49.41;94163.22;5042771;28;20207;-86
2023/12/24 11:14:58;;;;;;;1.45;0.77;;;;;;;15.17;51.46;94172.03;5053890;28;20339;-84
2023/12/24 11:17:51;;;;;;;1.38;0.73;;;;;;;15.17;53.18;94191.16;5054150;28;20231;-86
2023/12/24 11:20:41;;;;;;;1.23;0.82;;;;;;;14.52;54.18;94188.50;5042665;28;20208;-85
2023/12/24 11:23:16;;;;;;;2.85;1.15;;;;;;;14.59;55.74;94177.75;5052608;28;20200;-85
2023/12/24 11:25:46;;;;;;;2.25;1.15;;;;;;;14.65;54.70;94159.91;5051691;28;20210;-85
2023/12/24 11:28:16;;;;;;;1.40;0.95;;;;;;;14.40;54.82;94186.75;5051989;28;20217;-85
2023/12/24 11:31:03;;;;;;;1.73;1.23;;;;;;;14.27;54.54;94170.91;5052360;28;20239;-85
2023/12/24 11:33:46;;;;;;;1.58;0.90;;;;;;;14.71;54.38;94180.28;5052621;28;20217;-85
2023/12/24 11:36:18;;;;;;;1.40;0.95;;;;;;;15.01;52.57;94166.75;5039985;28;20196;-85
2023/12/24 11:38:46;;;;;;;1.95;0.85;;;;;;;15.35;51.23;94159.41;5052909;28;20199;-85
2023/12/24 11:41:18;;;;;;;2.20;1.08;;;;;;;15.32;51.98;94173.78;5051702;28;20211;-86
2023/12/24 11:43:53;;;;;;;0.93;0.88;;;;;;;15.46;51.77;94182.19;5053395;28;20670;-85